createdAt,value
2022-09-06T00:00:29.955Z,100.00
2022-09-06T00:02:59.915Z,100.00
2022-09-06T00:05:28.703Z,100.00
2022-09-06T00:08:00.311Z,100.00
2022-09-06T00:10:29.210Z,100.00
2022-09-06T00:13:01.267Z,100.00
2022-09-06T00:15:29.516Z,100.00
2022-09-06T00:18:01.397Z,100.00
2022-09-06T00:20:30.010Z,100.00
2022-09-06T00:22:59.536Z,100.00
2022-09-06T00:25:28.976Z,100.00
2022-09-06T00:27:58.064Z,100.00
2022-09-06T00:30:27.078Z,100.00
2022-09-06T00:32:56.646Z,100.00
2022-09-06T00:35:27.787Z,100.00
2022-09-06T00:37:58.388Z,100.00
2022-09-06T00:40:27.174Z,100.00
2022-09-06T00:42:55.386Z,100.00
2022-09-06T00:45:24.743Z,100.00
2022-09-06T00:47:53.121Z,100.00
2022-09-06T00:50:22.621Z,100.00
2022-09-06T00:52:54.178Z,100.00
2022-09-06T00:55:24.685Z,100.00
2022-09-06T00:57:53.511Z,100.00
2022-09-06T01:00:22.391Z,100.00
2022-09-06T01:02:53.041Z,100.00
2022-09-06T01:05:26.323Z,100.00
2022-09-06T01:08:06.466Z,100.00
2022-09-06T01:10:48.879Z,100.00
2022-09-06T01:13:28.486Z,100.00
2022-09-06T01:16:04.944Z,100.00
2022-09-06T01:18:48.374Z,100.00
2022-09-06T01:21:39.253Z,100.00
2022-09-06T01:24:43.355Z,100.00
2022-09-06T01:27:53.676Z,100.00
2022-09-06T01:30:23.698Z,100.00
2022-09-06T01:33:01.912Z,100.00
2022-09-06T01:35:39.842Z,100.00
2022-09-06T01:38:09.833Z,100.00
2022-09-06T01:40:42.001Z,100.00
2022-09-06T01:43:14.824Z,100.00
2022-09-06T01:46:03.207Z,100.00
2022-09-06T01:48:45.343Z,100.00
2022-09-06T01:51:22.667Z,100.00
2022-09-06T01:54:18.046Z,100.00
2022-09-06T01:56:59.658Z,100.00
2022-09-06T01:59:42.219Z,100.00
2022-09-06T02:02:20.481Z,100.00
2022-09-06T02:04:54.447Z,100.00
2022-09-06T02:07:26.465Z,100.00
2022-09-06T02:09:59.273Z,100.00
2022-09-06T02:12:33.925Z,100.00
2022-09-06T02:15:08.546Z,100.00
2022-09-06T02:17:42.768Z,100.00
2022-09-06T02:20:14.549Z,100.00
2022-09-06T02:22:46.752Z,100.00
2022-09-06T02:25:20.549Z,100.00
2022-09-06T02:27:48.983Z,100.00
2022-09-06T02:30:19.058Z,100.00
2022-09-06T02:32:57.216Z,100.00
2022-09-06T02:35:25.949Z,100.00
2022-09-06T02:37:54.335Z,100.00
2022-09-06T02:40:22.763Z,100.00
2022-09-06T02:42:50.928Z,100.00
2022-09-06T02:45:21.365Z,100.00
2022-09-06T02:47:51.017Z,100.00
2022-09-06T02:50:19.246Z,100.00
2022-09-06T02:52:47.479Z,100.00
2022-09-06T02:55:15.859Z,100.00
2022-09-06T02:57:44.187Z,100.00
2022-09-06T03:00:13.437Z,100.00
2022-09-06T03:02:41.602Z,100.00
2022-09-06T03:05:11.728Z,100.00
2022-09-06T03:07:39.909Z,100.00
2022-09-06T03:10:08.714Z,100.00
2022-09-06T03:12:37.043Z,100.00
2022-09-06T03:15:05.819Z,100.00
2022-09-06T03:17:36.845Z,100.00
2022-09-06T03:20:06.379Z,100.00
2022-09-06T03:22:39.408Z,100.00
2022-09-06T03:25:08.491Z,100.00
2022-09-06T03:27:36.986Z,100.00
2022-09-06T03:30:07.101Z,100.00
2022-09-06T03:32:35.467Z,100.00
2022-09-06T03:35:03.870Z,100.00
2022-09-06T03:37:32.085Z,100.00
2022-09-06T03:40:01.750Z,100.00
2022-09-06T03:42:30.210Z,100.00
2022-09-06T03:44:58.341Z,100.00
2022-09-06T03:47:26.479Z,100.00
2022-09-06T03:49:55.063Z,100.00
2022-09-06T03:52:25.486Z,100.00
2022-09-06T03:54:54.713Z,100.00
2022-09-06T03:57:24.687Z,100.00
2022-09-06T03:59:53.163Z,100.00
2022-09-06T04:02:21.689Z,100.00
2022-09-06T04:04:49.886Z,100.00
2022-09-06T04:07:18.069Z,100.00
2022-09-06T04:09:46.347Z,100.00
2022-09-06T04:12:14.949Z,100.00
2022-09-06T04:14:44.489Z,100.00
2022-09-06T04:17:12.622Z,100.00
2022-09-06T04:19:40.899Z,100.00
2022-09-06T04:22:09.167Z,100.00
2022-09-06T04:24:37.340Z,100.00
2022-09-06T04:27:06.423Z,100.00
2022-09-06T04:29:34.722Z,100.00
2022-09-06T04:32:04.815Z,100.00
2022-09-06T04:34:33.425Z,100.00
2022-09-06T04:37:01.693Z,100.00
2022-09-06T04:39:30.127Z,100.00
2022-09-06T04:41:58.347Z,100.00
2022-09-06T04:44:26.584Z,100.00
2022-09-06T04:47:09.500Z,100.00
2022-09-06T04:49:38.035Z,100.00
2022-09-06T04:52:06.267Z,100.00
2022-09-06T04:54:35.002Z,100.00
2022-09-06T04:57:03.281Z,100.00
2022-09-06T04:59:32.883Z,100.00
2022-09-06T05:02:01.257Z,100.00
2022-09-06T05:04:31.015Z,100.00
2022-09-06T05:07:03.317Z,100.00
2022-09-06T05:09:31.911Z,100.00
2022-09-06T05:12:02.557Z,100.00
2022-09-06T05:14:31.001Z,100.00
2022-09-06T05:16:59.233Z,100.00
2022-09-06T05:19:28.027Z,100.00
2022-09-06T05:21:57.501Z,100.00
2022-09-06T05:24:25.768Z,100.00
2022-09-06T05:26:54.023Z,100.00
2022-09-06T05:29:22.292Z,100.00
2022-09-06T05:31:50.644Z,100.00
2022-09-06T05:34:19.572Z,100.00
2022-09-06T05:36:47.647Z,100.00
2022-09-06T05:39:19.545Z,100.00
2022-09-06T05:41:47.641Z,100.00
2022-09-06T05:44:16.141Z,100.00
2022-09-06T05:46:46.761Z,100.00
2022-09-06T05:49:15.831Z,100.00
2022-09-06T05:51:44.078Z,100.00
2022-09-06T05:54:13.035Z,100.00
2022-09-06T05:56:42.940Z,100.00
2022-09-06T05:59:11.259Z,100.00
2022-09-06T06:01:49.154Z,100.00
2022-09-06T06:04:18.757Z,100.00
2022-09-06T06:06:49.189Z,100.00
2022-09-06T06:09:18.177Z,100.00
2022-09-06T06:11:47.955Z,100.00
2022-09-06T06:14:16.218Z,100.00
2022-09-06T06:16:44.469Z,100.00
2022-09-06T06:19:13.093Z,100.00
2022-09-06T06:21:41.612Z,100.00
2022-09-06T06:24:10.113Z,100.00
2022-09-06T06:26:38.885Z,100.00
2022-09-06T06:29:09.848Z,100.00
2022-09-06T06:31:39.466Z,100.00
2022-09-06T06:34:07.881Z,100.00
2022-09-06T06:36:37.584Z,100.00
2022-09-06T06:39:08.524Z,100.00
2022-09-06T06:41:36.757Z,100.00
2022-09-06T06:44:07.242Z,100.00
2022-09-06T06:46:45.114Z,100.00
2022-09-06T06:49:16.701Z,100.00
2022-09-06T06:51:44.852Z,100.00
2022-09-06T06:54:15.253Z,100.00
2022-09-06T06:56:44.989Z,100.00
2022-09-06T06:59:13.278Z,100.00
2022-09-06T07:01:43.069Z,100.00
2022-09-06T07:04:12.399Z,100.00
2022-09-06T07:12:28.058Z,100.00
2022-09-06T07:14:56.331Z,100.00
2022-09-06T07:17:28.208Z,100.00
2022-09-06T07:22:40.983Z,99.59
2022-09-06T07:25:13.369Z,99.26
2022-09-06T07:30:17.027Z,98.43
2022-09-06T07:32:46.697Z,97.35
2022-09-06T07:35:15.219Z,96.31
2022-09-06T07:37:43.567Z,95.94
2022-09-06T07:40:13.016Z,95.37
2022-09-06T07:42:41.291Z,95.07
2022-09-06T07:45:10.854Z,94.34
2022-09-06T07:53:24.795Z,92.94
2022-09-06T07:55:59.343Z,92.32
2022-09-06T07:58:27.788Z,91.97
2022-09-06T08:00:55.968Z,91.63
2022-09-06T08:03:24.406Z,91.00
2022-09-06T08:06:10.246Z,90.84
2022-09-06T08:11:28.957Z,89.44
2022-09-06T08:13:58.350Z,88.53
2022-09-06T08:16:30.844Z,86.60
2022-09-06T08:19:01.027Z,85.46
2022-09-06T08:21:32.296Z,83.67
2022-09-06T08:24:05.371Z,81.78
2022-09-06T08:26:36.068Z,81.36
2022-09-06T08:29:07.741Z,81.02
2022-09-06T08:31:38.689Z,81.31
2022-09-06T08:34:07.338Z,81.61
2022-09-06T08:36:37.518Z,81.90
2022-09-06T08:39:06.705Z,82.31
2022-09-06T08:41:46.111Z,82.91
2022-09-06T08:47:09.444Z,83.34
2022-09-06T08:49:42.028Z,83.28
2022-09-06T08:52:54.322Z,83.20
2022-09-06T08:55:40.394Z,83.17
2022-09-06T08:58:22.576Z,83.32
2022-09-06T09:00:58.856Z,82.53
2022-09-06T09:03:33.691Z,82.23
2022-09-06T09:06:05.486Z,81.98
2022-09-06T09:08:43.229Z,82.02
2022-09-06T09:11:17.055Z,82.09
2022-09-06T09:13:55.830Z,81.77
2022-09-06T09:16:25.374Z,80.98
2022-09-06T09:18:56.888Z,80.72
2022-09-06T09:21:30.727Z,80.22
2022-09-06T09:24:05.067Z,79.03
2022-09-06T09:26:40.983Z,79.27
2022-09-06T09:29:11.874Z,79.40
2022-09-06T09:31:42.457Z,79.29
2022-09-06T09:34:15.732Z,78.95
2022-09-06T09:39:39.516Z,78.13
2022-09-06T09:42:09.546Z,77.62
2022-09-06T09:44:43.607Z,77.49
2022-09-06T09:47:25.405Z,77.63
2022-09-06T09:49:53.985Z,77.72
2022-09-06T09:52:27.732Z,78.51
2022-09-06T09:54:58.783Z,79.01
2022-09-06T09:57:27.153Z,78.82
2022-09-06T09:59:57.590Z,78.20
2022-09-06T10:02:28.785Z,76.94
2022-09-06T10:05:03.623Z,77.12
2022-09-06T10:07:34.089Z,76.42
2022-09-06T10:10:06.975Z,76.86
2022-09-06T10:12:38.910Z,76.90
2022-09-06T10:15:09.981Z,77.21
2022-09-06T10:17:48.588Z,77.22
2022-09-06T10:20:17.719Z,77.86
2022-09-06T10:22:57.457Z,78.57
2022-09-06T10:25:49.788Z,78.70
2022-09-06T10:28:32.935Z,78.36
2022-09-06T10:31:13.622Z,77.05
2022-09-06T10:33:55.635Z,74.78
2022-09-06T10:36:31.260Z,72.27
2022-09-06T10:39:04.240Z,70.39
2022-09-06T10:41:58.059Z,68.69
2022-09-06T10:44:39.841Z,68.34
2022-09-06T10:47:12.230Z,69.07
2022-09-06T10:49:45.456Z,69.68
2022-09-06T10:52:18.754Z,69.22
2022-09-06T10:54:47.439Z,69.62
2022-09-06T11:00:16.740Z,72.02
2022-09-06T11:05:47.774Z,72.92
2022-09-06T11:11:20.836Z,71.18
2022-09-06T11:13:50.601Z,71.44
2022-09-06T11:16:25.703Z,71.05
2022-09-06T11:18:58.823Z,70.33
2022-09-06T11:21:51.071Z,70.09
2022-09-06T11:24:34.621Z,69.04
2022-09-06T11:27:07.487Z,68.75
2022-09-06T11:29:43.908Z,68.29
2022-09-06T11:32:33.282Z,67.92
2022-09-06T11:35:04.682Z,67.16
2022-09-06T11:37:36.064Z,66.56
2022-09-06T11:43:18.774Z,67.34
2022-09-06T11:45:51.085Z,68.45
2022-09-06T11:49:04.028Z,68.83
2022-09-06T11:51:35.355Z,68.48
2022-09-06T11:54:43.227Z,68.60
2022-09-06T11:57:16.671Z,69.00
2022-09-06T12:00:01.170Z,69.92
2022-09-06T12:02:37.658Z,70.97
2022-09-06T12:05:20.561Z,72.52
2022-09-06T12:08:34.471Z,73.77
2022-09-06T12:11:08.115Z,75.00
2022-09-06T12:14:01.851Z,75.65
2022-09-06T12:17:04.953Z,76.32
2022-09-06T12:19:47.468Z,78.71
2022-09-06T12:22:53.684Z,80.44
2022-09-06T12:25:54.986Z,82.15
2022-09-06T12:28:47.631Z,83.89
2022-09-06T12:31:27.426Z,85.74
2022-09-06T12:33:56.366Z,87.73
2022-09-06T12:36:30.538Z,89.93
2022-09-06T12:39:01.375Z,91.73
2022-09-06T12:41:32.354Z,92.77
2022-09-06T12:44:02.998Z,93.62
2022-09-06T12:46:33.033Z,94.59
2022-09-06T12:49:02.765Z,95.20
2022-09-06T12:51:32.984Z,95.69
2022-09-06T12:54:01.939Z,96.14
2022-09-06T12:56:33.073Z,95.48
2022-09-06T12:59:19.576Z,95.11
2022-09-06T13:02:00.606Z,96.38
2022-09-06T13:04:35.283Z,97.08
2022-09-06T13:07:06.683Z,96.38
2022-09-06T13:09:35.412Z,95.50
2022-09-06T13:12:07.859Z,94.05
2022-09-06T13:14:36.994Z,92.38
2022-09-06T13:17:05.477Z,91.87
2022-09-06T13:19:36.601Z,91.15
2022-09-06T13:22:08.742Z,90.59
2022-09-06T13:24:47.010Z,90.33
2022-09-06T13:27:26.273Z,90.34
2022-09-06T13:29:59.380Z,89.78
2022-09-06T13:32:28.087Z,89.43
2022-09-06T13:34:58.067Z,89.15
2022-09-06T13:37:30.189Z,89.15
2022-09-06T13:39:58.894Z,88.95
2022-09-06T13:42:30.755Z,88.65
2022-09-06T13:45:02.186Z,88.86
2022-09-06T13:47:31.940Z,89.54
2022-09-06T13:50:00.464Z,89.81
2022-09-06T13:52:30.062Z,89.88
2022-09-06T13:54:59.404Z,89.49
2022-09-06T13:57:28.899Z,89.33
2022-09-06T13:59:57.189Z,89.20
2022-09-06T14:02:25.701Z,89.17
2022-09-06T14:04:53.869Z,88.50
2022-09-06T14:07:22.113Z,88.43
2022-09-06T14:09:51.993Z,88.54
2022-09-06T14:12:20.271Z,88.49
2022-09-06T14:14:48.551Z,88.23
2022-09-06T14:17:16.768Z,87.48
2022-09-06T14:19:46.277Z,86.71
2022-09-06T14:22:14.726Z,86.43
2022-09-06T14:24:43.031Z,85.62
2022-09-06T14:27:12.787Z,84.76
2022-09-06T14:29:41.061Z,83.00
2022-09-06T14:32:09.678Z,81.49
2022-09-06T14:34:38.077Z,80.59
2022-09-06T14:37:11.553Z,78.78
2022-09-06T14:39:42.745Z,76.64
2022-09-06T14:42:12.489Z,75.21
2022-09-06T14:44:41.683Z,73.53
2022-09-06T14:47:10.328Z,72.52
2022-09-06T14:49:38.856Z,72.21
2022-09-06T14:52:07.262Z,71.50
2022-09-06T14:54:36.187Z,72.16
2022-09-06T14:57:04.338Z,71.36
2022-09-06T14:59:34.484Z,71.80
2022-09-06T15:02:04.875Z,71.93
2022-09-06T15:04:33.544Z,73.02
2022-09-06T15:07:01.810Z,74.12
2022-09-06T15:09:30.065Z,74.26
2022-09-06T15:11:58.377Z,74.77
2022-09-06T15:14:29.384Z,74.79
2022-09-06T15:17:00.195Z,75.78
2022-09-06T15:19:29.763Z,75.51
2022-09-06T15:21:58.501Z,75.04
2022-09-06T15:24:27.261Z,74.87
2022-09-06T15:26:57.160Z,74.42
2022-09-06T15:29:27.002Z,74.21
2022-09-06T15:31:55.687Z,74.38
2022-09-06T15:34:27.709Z,74.85
2022-09-06T15:36:56.819Z,74.62
2022-09-06T15:39:25.205Z,74.74
2022-09-06T15:41:53.505Z,75.20
2022-09-06T15:44:22.474Z,75.38
2022-09-06T15:46:52.235Z,75.96
2022-09-06T15:49:26.951Z,76.81
2022-09-06T15:51:59.076Z,77.47
2022-09-06T15:54:41.590Z,77.59
2022-09-06T15:57:10.706Z,78.24
2022-09-06T15:59:40.889Z,78.42
2022-09-06T16:02:09.237Z,78.49
2022-09-06T16:04:37.465Z,78.58
2022-09-06T16:07:07.519Z,79.03
2022-09-06T16:09:35.800Z,79.25
2022-09-06T16:12:04.449Z,78.57
2022-09-06T16:14:32.723Z,78.76
2022-09-06T16:17:01.043Z,78.26
2022-09-06T16:19:40.511Z,77.63
2022-09-06T16:22:13.246Z,76.79
2022-09-06T16:24:41.538Z,75.66
2022-09-06T16:27:12.268Z,75.17
2022-09-06T16:29:40.704Z,74.44
2022-09-06T16:32:10.257Z,74.42
2022-09-06T16:34:38.762Z,73.82
2022-09-06T16:37:08.188Z,73.86
2022-09-06T16:39:38.298Z,74.42
2022-09-06T16:42:06.407Z,74.63
2022-09-06T16:44:34.727Z,74.86
2022-09-06T16:47:04.204Z,74.63
2022-09-06T16:49:32.562Z,74.91
2022-09-06T16:52:08.013Z,74.18
2022-09-06T16:54:38.844Z,73.99
2022-09-06T16:57:07.220Z,73.26
2022-09-06T16:59:35.586Z,73.50
2022-09-06T17:02:04.184Z,73.55
2022-09-06T17:04:32.750Z,73.83
2022-09-06T17:07:01.598Z,74.41
2022-09-06T17:09:29.915Z,74.89
2022-09-06T17:12:00.278Z,75.50
2022-09-06T17:14:31.836Z,76.05
2022-09-06T17:17:04.969Z,76.54
2022-09-06T17:19:36.769Z,76.83
2022-09-06T17:22:05.887Z,77.56
2022-09-06T17:24:42.810Z,77.77
2022-09-06T17:27:12.468Z,77.78
2022-09-06T17:29:41.083Z,78.21
2022-09-06T17:32:10.555Z,78.18
2022-09-06T17:34:39.918Z,78.31
2022-09-06T17:37:09.666Z,78.17
2022-09-06T17:39:38.258Z,78.19
2022-09-06T17:42:06.996Z,78.81
2022-09-06T17:44:36.748Z,79.37
2022-09-06T17:47:13.602Z,79.81
2022-09-06T17:49:42.698Z,80.46
2022-09-06T17:52:11.883Z,81.06
2022-09-06T17:54:40.090Z,81.20
2022-09-06T17:57:08.275Z,81.39
2022-09-06T17:59:42.654Z,81.41
2022-09-06T18:02:11.086Z,81.85
2022-09-06T18:04:39.525Z,81.82
2022-09-06T18:07:07.737Z,82.11
2022-09-06T18:09:37.102Z,82.26
2022-09-06T18:12:07.106Z,82.84
2022-09-06T18:14:36.702Z,83.10
2022-09-06T18:17:09.306Z,83.39
2022-09-06T18:19:39.512Z,83.74
2022-09-06T18:22:07.480Z,84.00
2022-09-06T18:24:35.877Z,84.17
2022-09-06T18:27:04.624Z,84.44
2022-09-06T18:29:35.166Z,85.07
2022-09-06T18:32:04.533Z,85.23
2022-09-06T18:34:35.326Z,85.88
2022-09-06T18:37:03.629Z,85.88
2022-09-06T18:39:38.075Z,86.37
2022-09-06T18:42:11.529Z,86.72
2022-09-06T18:44:40.772Z,87.64
2022-09-06T18:47:13.377Z,88.00
2022-09-06T18:49:44.361Z,88.94
2022-09-06T18:52:14.106Z,89.70
2022-09-06T18:54:43.750Z,90.15
2022-09-06T18:57:13.221Z,90.29
2022-09-06T18:59:41.730Z,91.00
2022-09-06T19:02:10.912Z,91.21
2022-09-06T19:04:40.751Z,91.19
2022-09-06T19:07:10.634Z,91.48
2022-09-06T19:09:39.414Z,91.95
2022-09-06T19:12:16.987Z,92.04
2022-09-06T19:14:45.678Z,92.59
2022-09-06T19:17:15.433Z,92.80
2022-09-06T19:19:44.166Z,92.79
2022-09-06T19:22:13.946Z,93.25
2022-09-06T19:24:43.490Z,93.09
2022-09-06T19:27:12.423Z,93.05
2022-09-06T19:29:40.830Z,93.50
2022-09-06T19:32:09.291Z,93.58
2022-09-06T19:34:38.173Z,93.65
2022-09-06T19:37:07.045Z,95.01
2022-09-06T19:39:37.417Z,97.95
2022-09-06T19:42:06.599Z,99.61
2022-09-06T19:44:34.887Z,100.00
2022-09-06T19:47:03.321Z,100.00
2022-09-06T19:49:32.054Z,100.00
2022-09-06T19:52:00.465Z,100.00
2022-09-06T19:54:29.000Z,100.00
2022-09-06T19:56:58.815Z,100.00
2022-09-06T19:59:27.754Z,100.00
2022-09-06T20:01:56.372Z,100.00
2022-09-06T20:04:25.222Z,100.00
2022-09-06T20:06:54.776Z,100.00
2022-09-06T20:09:23.321Z,100.00
2022-09-06T20:11:53.665Z,100.00
2022-09-06T20:14:29.046Z,100.00
2022-09-06T20:17:29.285Z,100.00
2022-09-06T20:19:49.223Z,100.00
2022-09-06T20:22:17.976Z,100.00
2022-09-06T20:24:57.734Z,100.00
2022-09-06T20:27:25.979Z,100.00
2022-09-06T20:29:56.701Z,100.00
2022-09-06T20:32:25.172Z,100.00
2022-09-06T20:34:55.635Z,100.00
2022-09-06T20:37:32.018Z,100.00
2022-09-06T20:40:00.437Z,100.00
2022-09-06T20:42:30.472Z,100.00
2022-09-06T20:45:00.551Z,100.00
2022-09-06T20:47:30.497Z,100.00
2022-09-06T20:49:58.884Z,100.00
2022-09-06T20:52:27.786Z,100.00
2022-09-06T20:54:56.417Z,100.00
2022-09-06T20:57:24.890Z,100.00
2022-09-06T20:59:56.305Z,100.00
2022-09-06T21:02:28.492Z,100.00
2022-09-06T21:04:56.845Z,100.00
2022-09-06T21:07:25.130Z,100.00
2022-09-06T21:09:54.368Z,100.00
2022-09-06T21:12:22.534Z,100.00
2022-09-06T21:14:50.665Z,100.00
2022-09-06T21:17:18.856Z,100.00
2022-09-06T21:19:48.446Z,100.00
2022-09-06T21:22:18.294Z,100.00
2022-09-06T21:24:46.461Z,100.00
2022-09-06T21:27:17.086Z,100.00
2022-09-06T21:29:45.180Z,100.00
2022-09-06T21:32:13.503Z,100.00
2022-09-06T21:34:41.728Z,100.00
2022-09-06T21:37:12.248Z,100.00
2022-09-06T21:39:41.423Z,100.00
2022-09-06T21:42:09.753Z,100.00
2022-09-06T21:44:37.968Z,100.00
2022-09-06T21:47:06.329Z,100.00
2022-09-06T21:49:34.584Z,100.00
2022-09-06T21:52:02.691Z,100.00
2022-09-06T21:54:32.171Z,100.00
2022-09-06T21:57:00.229Z,100.00
2022-09-06T21:59:28.334Z,100.00
2022-09-06T22:01:57.261Z,100.00
2022-09-06T22:04:25.564Z,100.00
2022-09-06T22:06:54.101Z,100.00
2022-09-06T22:09:22.180Z,100.00
2022-09-06T22:11:52.753Z,100.00
2022-09-06T22:14:20.863Z,100.00
2022-09-06T22:16:48.943Z,100.00
2022-09-06T22:19:17.117Z,100.00
2022-09-06T22:21:45.586Z,100.00
2022-09-06T22:24:14.389Z,100.00
2022-09-06T22:26:43.189Z,100.00
2022-09-06T22:29:15.157Z,100.00
2022-09-06T22:31:43.328Z,100.00
2022-09-06T22:34:11.861Z,100.00
2022-09-06T22:36:40.335Z,100.00
2022-09-06T22:39:09.655Z,100.00
2022-09-06T22:41:38.249Z,100.00
2022-09-06T22:44:06.632Z,100.00
2022-09-06T22:46:39.541Z,100.00
2022-09-06T22:49:08.260Z,100.00
2022-09-06T22:51:37.753Z,100.00
2022-09-06T22:54:06.270Z,100.00
2022-09-06T22:56:35.790Z,100.00
2022-09-06T22:59:04.455Z,100.00
2022-09-06T23:01:38.881Z,100.00
2022-09-06T23:04:09.282Z,100.00
2022-09-06T23:06:38.238Z,100.00
2022-09-06T23:09:09.111Z,100.00
2022-09-06T23:11:37.154Z,100.00
2022-09-06T23:14:05.257Z,100.00
2022-09-06T23:16:33.405Z,100.00
2022-09-06T23:19:01.539Z,100.00
2022-09-06T23:21:31.037Z,100.00
2022-09-06T23:23:59.162Z,100.00
2022-09-06T23:26:31.252Z,100.00
2022-09-06T23:29:00.237Z,100.00
2022-09-06T23:31:30.844Z,100.00
2022-09-06T23:34:00.963Z,100.00
2022-09-06T23:36:30.748Z,100.00
2022-09-06T23:38:59.872Z,100.00
2022-09-06T23:41:27.889Z,100.00
2022-09-06T23:43:56.294Z,100.00
2022-09-06T23:46:24.530Z,100.00
2022-09-06T23:48:52.695Z,100.00
2022-09-06T23:51:21.014Z,100.00
2022-09-06T23:53:50.578Z,100.00
2022-09-06T23:56:18.876Z,100.00
2022-09-06T23:58:46.937Z,100.00
